Terminal Aerodrome Forecast
Issued by NWS Kansas City/Pleasant Hill, MO

Home | Current Version | Previous Version | Text Only | Print | Product List | Glossary On
Versions: 1 2 3 4 5 6 7 8 9 10 11 12 13 14 15 16 17
769
FTUS43 KEAX 071720
TAFMCI
TAF
KMCI 071720Z 0718/0818 31015G25KT P6SM BKN150
     FM080300 30015G25KT P6SM BKN040
     FM080900 31017G25KT 5SM -SHSN BKN020
     FM081500 32025G35KT 5SM -SHSN BKN035=

USA.gov is the U.S. government's official web portal to all federal, state and local government web resources and services.